sensor_id;sensor_type;location;lat;lon;timestamp;P1;durP1;ratioP1;P2;durP2;ratioP2
5616;SDS011;2830;50.656;7.568;2024-03-22T00:00:33;20.20;;;12.50;;
5616;SDS011;2830;50.656;7.568;2024-03-22T00:02:58;19.60;;;11.70;;
5616;SDS011;2830;50.656;7.568;2024-03-22T00:05:24;20.10;;;13.80;;
5616;SDS011;2830;50.656;7.568;2024-03-22T00:07:50;21.67;;;13.30;;
5616;SDS011;2830;50.656;7.568;2024-03-22T00:10:16;22.70;;;12.73;;
5616;SDS011;2830;50.656;7.568;2024-03-22T00:12:42;29.60;;;14.40;;
5616;SDS011;2830;50.656;7.568;2024-03-22T00:15:08;18.37;;;11.30;;
5616;SDS011;2830;50.656;7.568;2024-03-22T00:17:34;22.00;;;13.40;;
5616;SDS011;2830;50.656;7.568;2024-03-22T00:20:00;23.10;;;14.23;;
5616;SDS011;2830;50.656;7.568;2024-03-22T00:22:26;18.80;;;12.00;;
5616;SDS011;2830;50.656;7.568;2024-03-22T00:24:52;18.67;;;11.93;;
5616;SDS011;2830;50.656;7.568;2024-03-22T00:27:18;18.80;;;12.23;;
5616;SDS011;2830;50.656;7.568;2024-03-22T00:29:44;20.20;;;11.43;;
5616;SDS011;2830;50.656;7.568;2024-03-22T00:32:10;19.70;;;11.60;;
5616;SDS011;2830;50.656;7.568;2024-03-22T00:34:35;18.23;;;11.50;;
5616;SDS011;2830;50.656;7.568;2024-03-22T00:37:01;20.20;;;12.93;;
5616;SDS011;2830;50.656;7.568;2024-03-22T00:39:27;18.57;;;11.80;;
5616;SDS011;2830;50.656;7.568;2024-03-22T00:41:53;19.90;;;11.80;;
5616;SDS011;2830;50.656;7.568;2024-03-22T00:44:19;18.70;;;12.73;;
5616;SDS011;2830;50.656;7.568;2024-03-22T00:46:45;18.03;;;11.50;;
5616;SDS011;2830;50.656;7.568;2024-03-22T00:49:11;20.07;;;12.27;;
5616;SDS011;2830;50.656;7.568;2024-03-22T00:51:36;19.77;;;11.13;;
5616;SDS011;2830;50.656;7.568;2024-03-22T00:54:02;19.90;;;11.50;;
5616;SDS011;2830;50.656;7.568;2024-03-22T00:56:28;18.13;;;11.63;;
5616;SDS011;2830;50.656;7.568;2024-03-22T00:58:54;19.83;;;10.53;;
5616;SDS011;2830;50.656;7.568;2024-03-22T01:01:20;19.83;;;12.50;;
5616;SDS011;2830;50.656;7.568;2024-03-22T01:03:46;21.07;;;12.23;;
5616;SDS011;2830;50.656;7.568;2024-03-22T01:06:12;19.83;;;13.00;;
5616;SDS011;2830;50.656;7.568;2024-03-22T01:08:37;16.50;;;10.43;;
5616;SDS011;2830;50.656;7.568;2024-03-22T01:11:03;19.53;;;10.80;;
5616;SDS011;2830;50.656;7.568;2024-03-22T01:13:29;18.40;;;11.20;;
5616;SDS011;2830;50.656;7.568;2024-03-22T01:15:55;24.83;;;13.17;;
5616;SDS011;2830;50.656;7.568;2024-03-22T01:18:21;24.00;;;12.33;;
5616;SDS011;2830;50.656;7.568;2024-03-22T01:20:47;19.90;;;12.87;;
5616;SDS011;2830;50.656;7.568;2024-03-22T01:23:12;20.30;;;11.53;;
5616;SDS011;2830;50.656;7.568;2024-03-22T01:25:38;21.60;;;11.57;;
5616;SDS011;2830;50.656;7.568;2024-03-22T01:28:04;23.03;;;14.43;;
5616;SDS011;2830;50.656;7.568;2024-03-22T01:30:30;19.80;;;10.90;;
5616;SDS011;2830;50.656;7.568;2024-03-22T01:32:56;18.20;;;13.27;;
5616;SDS011;2830;50.656;7.568;2024-03-22T01:35:22;18.40;;;10.50;;
5616;SDS011;2830;50.656;7.568;2024-03-22T01:37:48;22.67;;;11.47;;
5616;SDS011;2830;50.656;7.568;2024-03-22T01:40:14;19.23;;;11.90;;
5616;SDS011;2830;50.656;7.568;2024-03-22T01:42:40;22.03;;;13.17;;
5616;SDS011;2830;50.656;7.568;2024-03-22T01:45:06;20.87;;;12.30;;
5616;SDS011;2830;50.656;7.568;2024-03-22T01:47:32;22.67;;;12.30;;
5616;SDS011;2830;50.656;7.568;2024-03-22T01:49:58;25.30;;;13.23;;
5616;SDS011;2830;50.656;7.568;2024-03-22T01:52:25;19.73;;;11.47;;
5616;SDS011;2830;50.656;7.568;2024-03-22T01:54:51;24.10;;;14.03;;
5616;SDS011;2830;50.656;7.568;2024-03-22T01:57:17;18.50;;;11.40;;
5616;SDS011;2830;50.656;7.568;2024-03-22T01:59:44;20.00;;;11.30;;
5616;SDS011;2830;50.656;7.568;2024-03-22T02:02:14;24.30;;;12.23;;
5616;SDS011;2830;50.656;7.568;2024-03-22T02:04:40;16.03;;;9.70;;
5616;SDS011;2830;50.656;7.568;2024-03-22T02:07:06;22.63;;;11.73;;
5616;SDS011;2830;50.656;7.568;2024-03-22T02:09:32;16.80;;;10.40;;
5616;SDS011;2830;50.656;7.568;2024-03-22T02:11:58;18.90;;;10.77;;
5616;SDS011;2830;50.656;7.568;2024-03-22T02:14:24;20.50;;;12.23;;
5616;SDS011;2830;50.656;7.568;2024-03-22T02:16:50;18.20;;;10.43;;
5616;SDS011;2830;50.656;7.568;2024-03-22T02:19:16;18.20;;;11.33;;
5616;SDS011;2830;50.656;7.568;2024-03-22T02:21:42;20.60;;;10.70;;
5616;SDS011;2830;50.656;7.568;2024-03-22T02:24:08;17.23;;;11.33;;
5616;SDS011;2830;50.656;7.568;2024-03-22T02:26:34;17.57;;;10.90;;
5616;SDS011;2830;50.656;7.568;2024-03-22T02:29:00;16.07;;;9.90;;
5616;SDS011;2830;50.656;7.568;2024-03-22T02:31:26;17.23;;;11.73;;
5616;SDS011;2830;50.656;7.568;2024-03-22T02:33:52;19.00;;;12.20;;
5616;SDS011;2830;50.656;7.568;2024-03-22T02:36:18;16.73;;;11.10;;
5616;SDS011;2830;50.656;7.568;2024-03-22T02:38:44;19.80;;;11.67;;
5616;SDS011;2830;50.656;7.568;2024-03-22T02:41:09;17.37;;;11.77;;
5616;SDS011;2830;50.656;7.568;2024-03-22T02:43:35;23.50;;;13.33;;
5616;SDS011;2830;50.656;7.568;2024-03-22T02:46:01;19.50;;;12.60;;
5616;SDS011;2830;50.656;7.568;2024-03-22T02:48:27;16.20;;;10.77;;
5616;SDS011;2830;50.656;7.568;2024-03-22T02:50:57;18.10;;;10.87;;
5616;SDS011;2830;50.656;7.568;2024-03-22T02:53:23;19.50;;;10.77;;
5616;SDS011;2830;50.656;7.568;2024-03-22T02:55:48;17.30;;;11.47;;
5616;SDS011;2830;50.656;7.568;2024-03-22T02:58:14;21.53;;;11.00;;
5616;SDS011;2830;50.656;7.568;2024-03-22T03:00:42;21.30;;;11.93;;
5616;SDS011;2830;50.656;7.568;2024-03-22T03:03:08;22.77;;;12.30;;
5616;SDS011;2830;50.656;7.568;2024-03-22T03:05:34;21.40;;;11.23;;
5616;SDS011;2830;50.656;7.568;2024-03-22T03:08:00;27.43;;;11.90;;
5616;SDS011;2830;50.656;7.568;2024-03-22T03:10:26;24.57;;;11.77;;
5616;SDS011;2830;50.656;7.568;2024-03-22T03:12:53;17.57;;;11.30;;
5616;SDS011;2830;50.656;7.568;2024-03-22T03:15:20;18.87;;;11.77;;
5616;SDS011;2830;50.656;7.568;2024-03-22T03:17:45;29.93;;;10.63;;
5616;SDS011;2830;50.656;7.568;2024-03-22T03:20:11;23.00;;;12.80;;
5616;SDS011;2830;50.656;7.568;2024-03-22T03:22:41;22.63;;;13.10;;
5616;SDS011;2830;50.656;7.568;2024-03-22T03:25:07;21.10;;;12.60;;
5616;SDS011;2830;50.656;7.568;2024-03-22T03:27:34;19.10;;;11.97;;
5616;SDS011;2830;50.656;7.568;2024-03-22T03:30:00;19.07;;;12.10;;
5616;SDS011;2830;50.656;7.568;2024-03-22T03:32:26;19.87;;;12.10;;
5616;SDS011;2830;50.656;7.568;2024-03-22T03:34:52;18.30;;;10.60;;
5616;SDS011;2830;50.656;7.568;2024-03-22T03:37:18;21.47;;;11.87;;
5616;SDS011;2830;50.656;7.568;2024-03-22T03:39:44;18.13;;;11.03;;
5616;SDS011;2830;50.656;7.568;2024-03-22T03:42:10;22.33;;;11.63;;
5616;SDS011;2830;50.656;7.568;2024-03-22T03:44:36;16.73;;;11.67;;
5616;SDS011;2830;50.656;7.568;2024-03-22T03:47:02;19.73;;;11.47;;
5616;SDS011;2830;50.656;7.568;2024-03-22T03:49:28;17.17;;;10.10;;
5616;SDS011;2830;50.656;7.568;2024-03-22T03:51:54;15.83;;;10.83;;
5616;SDS011;2830;50.656;7.568;2024-03-22T03:54:20;23.33;;;11.03;;
5616;SDS011;2830;50.656;7.568;2024-03-22T03:56:46;21.33;;;12.37;;
5616;SDS011;2830;50.656;7.568;2024-03-22T03:59:12;22.23;;;13.13;;
5616;SDS011;2830;50.656;7.568;2024-03-22T04:01:37;23.03;;;12.77;;
5616;SDS011;2830;50.656;7.568;2024-03-22T04:04:03;21.00;;;12.90;;
5616;SDS011;2830;50.656;7.568;2024-03-22T04:06:29;18.13;;;11.50;;
5616;SDS011;2830;50.656;7.568;2024-03-22T04:08:55;16.60;;;10.70;;
5616;SDS011;2830;50.656;7.568;2024-03-22T04:11:22;20.83;;;14.00;;
5616;SDS011;2830;50.656;7.568;2024-03-22T04:13:48;19.17;;;12.20;;
5616;SDS011;2830;50.656;7.568;2024-03-22T04:16:14;23.47;;;13.50;;
5616;SDS011;2830;50.656;7.568;2024-03-22T04:18:40;20.43;;;12.97;;
5616;SDS011;2830;50.656;7.568;2024-03-22T04:21:06;22.50;;;12.37;;
5616;SDS011;2830;50.656;7.568;2024-03-22T04:23:32;24.20;;;11.80;;
5616;SDS011;2830;50.656;7.568;2024-03-22T04:25:58;21.00;;;12.43;;
5616;SDS011;2830;50.656;7.568;2024-03-22T04:28:25;22.03;;;13.07;;
5616;SDS011;2830;50.656;7.568;2024-03-22T04:30:58;18.83;;;11.23;;
5616;SDS011;2830;50.656;7.568;2024-03-22T04:33:25;19.00;;;12.10;;
5616;SDS011;2830;50.656;7.568;2024-03-22T04:35:54;17.73;;;12.60;;
5616;SDS011;2830;50.656;7.568;2024-03-22T04:38:24;17.60;;;11.00;;
5616;SDS011;2830;50.656;7.568;2024-03-22T04:40:51;15.70;;;10.63;;
5616;SDS011;2830;50.656;7.568;2024-03-22T04:43:17;17.87;;;11.40;;
5616;SDS011;2830;50.656;7.568;2024-03-22T04:45:44;19.70;;;12.20;;
5616;SDS011;2830;50.656;7.568;2024-03-22T04:48:12;18.50;;;10.83;;
5616;SDS011;2830;50.656;7.568;2024-03-22T04:50:38;20.57;;;12.10;;
5616;SDS011;2830;50.656;7.568;2024-03-22T04:53:04;19.83;;;11.63;;
5616;SDS011;2830;50.656;7.568;2024-03-22T04:55:30;17.87;;;11.70;;
5616;SDS011;2830;50.656;7.568;2024-03-22T04:57:58;21.63;;;11.77;;
5616;SDS011;2830;50.656;7.568;2024-03-22T05:00:24;17.57;;;11.53;;
5616;SDS011;2830;50.656;7.568;2024-03-22T05:02:50;18.53;;;11.97;;
5616;SDS011;2830;50.656;7.568;2024-03-22T05:05:17;20.17;;;11.60;;
5616;SDS011;2830;50.656;7.568;2024-03-22T05:07:43;23.53;;;13.17;;
5616;SDS011;2830;50.656;7.568;2024-03-22T05:10:10;19.67;;;12.50;;
5616;SDS011;2830;50.656;7.568;2024-03-22T05:12:36;23.30;;;11.60;;
5616;SDS011;2830;50.656;7.568;2024-03-22T05:15:02;21.67;;;13.40;;
5616;SDS011;2830;50.656;7.568;2024-03-22T05:17:29;18.67;;;11.97;;
5616;SDS011;2830;50.656;7.568;2024-03-22T05:19:57;18.03;;;11.67;;
5616;SDS011;2830;50.656;7.568;2024-03-22T05:22:24;20.20;;;12.63;;
5616;SDS011;2830;50.656;7.568;2024-03-22T05:24:50;19.37;;;12.20;;
5616;SDS011;2830;50.656;7.568;2024-03-22T05:27:16;18.90;;;11.93;;
5616;SDS011;2830;50.656;7.568;2024-03-22T05:29:43;24.57;;;12.47;;
5616;SDS011;2830;50.656;7.568;2024-03-22T05:32:08;17.67;;;11.30;;
5616;SDS011;2830;50.656;7.568;2024-03-22T05:34:34;20.43;;;12.23;;
5616;SDS011;2830;50.656;7.568;2024-03-22T05:37:02;20.73;;;11.83;;
5616;SDS011;2830;50.656;7.568;2024-03-22T05:39:28;18.77;;;11.63;;
5616;SDS011;2830;50.656;7.568;2024-03-22T05:41:54;18.17;;;12.10;;
5616;SDS011;2830;50.656;7.568;2024-03-22T05:44:21;20.37;;;12.17;;
5616;SDS011;2830;50.656;7.568;2024-03-22T05:46:47;22.10;;;12.23;;
5616;SDS011;2830;50.656;7.568;2024-03-22T05:49:13;20.33;;;13.30;;
5616;SDS011;2830;50.656;7.568;2024-03-22T05:51:39;15.10;;;10.23;;
5616;SDS011;2830;50.656;7.568;2024-03-22T05:54:05;19.30;;;10.93;;
5616;SDS011;2830;50.656;7.568;2024-03-22T05:56:31;22.30;;;11.90;;
5616;SDS011;2830;50.656;7.568;2024-03-22T05:58:57;19.73;;;10.67;;
5616;SDS011;2830;50.656;7.568;2024-03-22T06:01:23;19.17;;;11.20;;
5616;SDS011;2830;50.656;7.568;2024-03-22T06:03:49;19.47;;;11.57;;
5616;SDS011;2830;50.656;7.568;2024-03-22T06:06:15;21.20;;;11.30;;
5616;SDS011;2830;50.656;7.568;2024-03-22T06:08:41;22.77;;;12.10;;
5616;SDS011;2830;50.656;7.568;2024-03-22T06:11:09;18.73;;;10.97;;
5616;SDS011;2830;50.656;7.568;2024-03-22T06:13:35;20.20;;;11.67;;
5616;SDS011;2830;50.656;7.568;2024-03-22T06:16:01;18.67;;;12.07;;
5616;SDS011;2830;50.656;7.568;2024-03-22T06:18:28;23.03;;;11.73;;
5616;SDS011;2830;50.656;7.568;2024-03-22T06:20:54;17.70;;;11.43;;
5616;SDS011;2830;50.656;7.568;2024-03-22T06:23:21;19.27;;;10.50;;
5616;SDS011;2830;50.656;7.568;2024-03-22T06:25:53;19.67;;;12.30;;
5616;SDS011;2830;50.656;7.568;2024-03-22T06:28:21;19.37;;;11.67;;
5616;SDS011;2830;50.656;7.568;2024-03-22T06:30:47;18.20;;;11.50;;
5616;SDS011;2830;50.656;7.568;2024-03-22T06:33:13;21.43;;;12.40;;
5616;SDS011;2830;50.656;7.568;2024-03-22T06:35:40;19.67;;;12.07;;
5616;SDS011;2830;50.656;7.568;2024-03-22T06:38:06;17.37;;;12.20;;
5616;SDS011;2830;50.656;7.568;2024-03-22T06:40:32;15.53;;;11.27;;
5616;SDS011;2830;50.656;7.568;2024-03-22T06:42:58;21.20;;;12.23;;
5616;SDS011;2830;50.656;7.568;2024-03-22T06:45:24;20.03;;;11.87;;
5616;SDS011;2830;50.656;7.568;2024-03-22T06:47:50;19.97;;;12.90;;
5616;SDS011;2830;50.656;7.568;2024-03-22T06:50:16;22.60;;;12.90;;
5616;SDS011;2830;50.656;7.568;2024-03-22T06:52:52;19.27;;;12.20;;
5616;SDS011;2830;50.656;7.568;2024-03-22T06:55:21;19.73;;;12.20;;
5616;SDS011;2830;50.656;7.568;2024-03-22T06:57:48;17.10;;;11.43;;
5616;SDS011;2830;50.656;7.568;2024-03-22T07:00:15;20.47;;;11.33;;
5616;SDS011;2830;50.656;7.568;2024-03-22T07:02:41;21.47;;;10.77;;
5616;SDS011;2830;50.656;7.568;2024-03-22T07:05:08;22.43;;;13.37;;
5616;SDS011;2830;50.656;7.568;2024-03-22T07:07:35;20.40;;;11.70;;
5616;SDS011;2830;50.656;7.568;2024-03-22T07:10:01;20.20;;;12.30;;
5616;SDS011;2830;50.656;7.568;2024-03-22T07:12:28;19.30;;;11.50;;
5616;SDS011;2830;50.656;7.568;2024-03-22T07:14:58;18.80;;;10.70;;
5616;SDS011;2830;50.656;7.568;2024-03-22T07:17:25;18.97;;;12.70;;
5616;SDS011;2830;50.656;7.568;2024-03-22T07:19:51;19.87;;;11.13;;
5616;SDS011;2830;50.656;7.568;2024-03-22T07:22:17;17.43;;;10.93;;
5616;SDS011;2830;50.656;7.568;2024-03-22T07:24:43;20.83;;;13.00;;
5616;SDS011;2830;50.656;7.568;2024-03-22T07:27:10;17.27;;;11.53;;
5616;SDS011;2830;50.656;7.568;2024-03-22T07:29:36;21.90;;;13.50;;
5616;SDS011;2830;50.656;7.568;2024-03-22T07:32:02;18.10;;;11.20;;
5616;SDS011;2830;50.656;7.568;2024-03-22T07:34:28;18.67;;;11.93;;
5616;SDS011;2830;50.656;7.568;2024-03-22T07:36:54;19.53;;;12.00;;
5616;SDS011;2830;50.656;7.568;2024-03-22T07:39:20;18.63;;;11.80;;
5616;SDS011;2830;50.656;7.568;2024-03-22T07:41:46;17.00;;;11.80;;
5616;SDS011;2830;50.656;7.568;2024-03-22T07:44:12;16.80;;;11.13;;
5616;SDS011;2830;50.656;7.568;2024-03-22T07:46:38;18.67;;;12.00;;
5616;SDS011;2830;50.656;7.568;2024-03-22T07:49:04;15.83;;;9.73;;
5616;SDS011;2830;50.656;7.568;2024-03-22T07:51:30;15.77;;;10.40;;
5616;SDS011;2830;50.656;7.568;2024-03-22T07:53:56;17.07;;;10.73;;
5616;SDS011;2830;50.656;7.568;2024-03-22T07:56:21;18.23;;;11.30;;
5616;SDS011;2830;50.656;7.568;2024-03-22T07:58:47;17.73;;;11.43;;
5616;SDS011;2830;50.656;7.568;2024-03-22T08:01:13;16.90;;;10.00;;
5616;SDS011;2830;50.656;7.568;2024-03-22T08:03:39;15.30;;;7.57;;
5616;SDS011;2830;50.656;7.568;2024-03-22T08:06:05;15.67;;;7.93;;
5616;SDS011;2830;50.656;7.568;2024-03-22T08:08:31;12.30;;;6.30;;
5616;SDS011;2830;50.656;7.568;2024-03-22T08:10:57;14.30;;;7.63;;
5616;SDS011;2830;50.656;7.568;2024-03-22T08:13:23;11.13;;;6.50;;
5616;SDS011;2830;50.656;7.568;2024-03-22T08:15:48;12.47;;;6.93;;
5616;SDS011;2830;50.656;7.568;2024-03-22T08:18:14;14.63;;;7.70;;
5616;SDS011;2830;50.656;7.568;2024-03-22T08:20:40;14.03;;;7.20;;
5616;SDS011;2830;50.656;7.568;2024-03-22T08:23:07;12.10;;;7.30;;
5616;SDS011;2830;50.656;7.568;2024-03-22T08:25:33;14.20;;;7.30;;
5616;SDS011;2830;50.656;7.568;2024-03-22T08:27:59;11.40;;;6.80;;
5616;SDS011;2830;50.656;7.568;2024-03-22T08:30:25;13.50;;;7.27;;
5616;SDS011;2830;50.656;7.568;2024-03-22T08:32:51;12.67;;;7.50;;
5616;SDS011;2830;50.656;7.568;2024-03-22T08:35:17;10.83;;;6.07;;
5616;SDS011;2830;50.656;7.568;2024-03-22T08:37:43;8.90;;;6.53;;
5616;SDS011;2830;50.656;7.568;2024-03-22T08:40:09;9.80;;;6.40;;
5616;SDS011;2830;50.656;7.568;2024-03-22T08:42:36;11.30;;;6.87;;
5616;SDS011;2830;50.656;7.568;2024-03-22T08:45:02;12.10;;;7.10;;
5616;SDS011;2830;50.656;7.568;2024-03-22T08:47:29;9.90;;;6.20;;
5616;SDS011;2830;50.656;7.568;2024-03-22T08:49:56;14.50;;;6.20;;
5616;SDS011;2830;50.656;7.568;2024-03-22T08:52:23;14.20;;;6.97;;
5616;SDS011;2830;50.656;7.568;2024-03-22T08:54:53;16.00;;;7.80;;
5616;SDS011;2830;50.656;7.568;2024-03-22T08:57:19;13.93;;;7.30;;
5616;SDS011;2830;50.656;7.568;2024-03-22T08:59:45;11.07;;;6.80;;
5616;SDS011;2830;50.656;7.568;2024-03-22T09:02:11;9.60;;;7.30;;
5616;SDS011;2830;50.656;7.568;2024-03-22T09:04:38;13.43;;;6.90;;
5616;SDS011;2830;50.656;7.568;2024-03-22T09:07:03;14.83;;;8.10;;
5616;SDS011;2830;50.656;7.568;2024-03-22T09:09:29;12.93;;;6.90;;
5616;SDS011;2830;50.656;7.568;2024-03-22T09:11:55;10.13;;;6.63;;
5616;SDS011;2830;50.656;7.568;2024-03-22T09:14:21;14.10;;;7.57;;
5616;SDS011;2830;50.656;7.568;2024-03-22T09:16:47;11.47;;;6.90;;
5616;SDS011;2830;50.656;7.568;2024-03-22T09:19:13;13.50;;;8.03;;
5616;SDS011;2830;50.656;7.568;2024-03-22T09:21:39;13.03;;;7.33;;
5616;SDS011;2830;50.656;7.568;2024-03-22T09:24:04;13.20;;;7.53;;
5616;SDS011;2830;50.656;7.568;2024-03-22T09:26:34;13.23;;;8.57;;
5616;SDS011;2830;50.656;7.568;2024-03-22T09:29:00;12.57;;;7.50;;
5616;SDS011;2830;50.656;7.568;2024-03-22T09:31:26;15.00;;;8.20;;
5616;SDS011;2830;50.656;7.568;2024-03-22T09:33:52;13.23;;;9.20;;
5616;SDS011;2830;50.656;7.568;2024-03-22T09:36:18;14.20;;;9.63;;
5616;SDS011;2830;50.656;7.568;2024-03-22T09:38:44;12.17;;;8.47;;
5616;SDS011;2830;50.656;7.568;2024-03-22T09:41:10;14.27;;;9.30;;
5616;SDS011;2830;50.656;7.568;2024-03-22T09:43:38;13.50;;;8.07;;
5616;SDS011;2830;50.656;7.568;2024-03-22T09:46:04;14.83;;;8.40;;
5616;SDS011;2830;50.656;7.568;2024-03-22T09:48:30;16.00;;;8.73;;
5616;SDS011;2830;50.656;7.568;2024-03-22T09:50:58;18.50;;;10.63;;
5616;SDS011;2830;50.656;7.568;2024-03-22T09:53:26;11.70;;;8.40;;
5616;SDS011;2830;50.656;7.568;2024-03-22T09:55:54;16.77;;;10.03;;
5616;SDS011;2830;50.656;7.568;2024-03-22T09:58:23;13.17;;;8.30;;
5616;SDS011;2830;50.656;7.568;2024-03-22T10:00:49;14.20;;;8.80;;
5616;SDS011;2830;50.656;7.568;2024-03-22T10:03:15;17.80;;;9.97;;
5616;SDS011;2830;50.656;7.568;2024-03-22T10:05:42;16.27;;;10.97;;
5616;SDS011;2830;50.656;7.568;2024-03-22T10:08:07;21.67;;;10.40;;
5616;SDS011;2830;50.656;7.568;2024-03-22T10:10:33;18.97;;;9.47;;
5616;SDS011;2830;50.656;7.568;2024-03-22T10:13:00;15.87;;;10.60;;
5616;SDS011;2830;50.656;7.568;2024-03-22T10:15:27;19.73;;;10.20;;
5616;SDS011;2830;50.656;7.568;2024-03-22T10:17:56;17.27;;;9.40;;
5616;SDS011;2830;50.656;7.568;2024-03-22T10:20:22;15.87;;;9.43;;
5616;SDS011;2830;50.656;7.568;2024-03-22T10:22:48;19.30;;;10.47;;
5616;SDS011;2830;50.656;7.568;2024-03-22T10:25:20;17.37;;;10.47;;
5616;SDS011;2830;50.656;7.568;2024-03-22T10:27:45;13.97;;;8.70;;
5616;SDS011;2830;50.656;7.568;2024-03-22T10:30:13;16.10;;;8.90;;
5616;SDS011;2830;50.656;7.568;2024-03-22T10:32:42;16.17;;;9.67;;
5616;SDS011;2830;50.656;7.568;2024-03-22T10:35:09;17.13;;;11.13;;
5616;SDS011;2830;50.656;7.568;2024-03-22T10:37:38;20.50;;;11.53;;
5616;SDS011;2830;50.656;7.568;2024-03-22T10:40:06;13.87;;;8.40;;
5616;SDS011;2830;50.656;7.568;2024-03-22T10:42:39;13.77;;;8.90;;
5616;SDS011;2830;50.656;7.568;2024-03-22T10:45:07;16.60;;;9.73;;
5616;SDS011;2830;50.656;7.568;2024-03-22T10:47:35;17.33;;;10.93;;
5616;SDS011;2830;50.656;7.568;2024-03-22T10:52:37;22.93;;;11.43;;
5616;SDS011;2830;50.656;7.568;2024-03-22T10:55:24;12.87;;;8.83;;
5616;SDS011;2830;50.656;7.568;2024-03-22T10:57:59;19.63;;;11.10;;
5616;SDS011;2830;50.656;7.568;2024-03-22T11:00:28;20.33;;;9.97;;
5616;SDS011;2830;50.656;7.568;2024-03-22T11:02:55;16.50;;;9.10;;
5616;SDS011;2830;50.656;7.568;2024-03-22T11:05:21;16.47;;;9.43;;
5616;SDS011;2830;50.656;7.568;2024-03-22T11:07:57;13.03;;;8.63;;
5616;SDS011;2830;50.656;7.568;2024-03-22T11:10:34;15.83;;;9.20;;
5616;SDS011;2830;50.656;7.568;2024-03-22T11:13:01;13.47;;;8.13;;
5616;SDS011;2830;50.656;7.568;2024-03-22T11:15:31;15.70;;;9.30;;
5616;SDS011;2830;50.656;7.568;2024-03-22T11:17:57;21.17;;;8.73;;
5616;SDS011;2830;50.656;7.568;2024-03-22T11:20:24;12.40;;;8.07;;
5616;SDS011;2830;50.656;7.568;2024-03-22T11:22:51;10.90;;;7.43;;
5616;SDS011;2830;50.656;7.568;2024-03-22T11:25:17;18.80;;;8.33;;
5616;SDS011;2830;50.656;7.568;2024-03-22T11:27:45;10.63;;;7.40;;
5616;SDS011;2830;50.656;7.568;2024-03-22T11:30:15;15.00;;;8.57;;
5616;SDS011;2830;50.656;7.568;2024-03-22T11:32:41;16.30;;;8.47;;
5616;SDS011;2830;50.656;7.568;2024-03-22T11:35:12;13.10;;;7.77;;
5616;SDS011;2830;50.656;7.568;2024-03-22T11:37:38;13.30;;;7.73;;
5616;SDS011;2830;50.656;7.568;2024-03-22T11:40:06;13.03;;;7.70;;
5616;SDS011;2830;50.656;7.568;2024-03-22T11:42:39;13.30;;;7.93;;
5616;SDS011;2830;50.656;7.568;2024-03-22T11:45:08;15.97;;;9.40;;
5616;SDS011;2830;50.656;7.568;2024-03-22T11:47:35;15.83;;;8.40;;
5616;SDS011;2830;50.656;7.568;2024-03-22T11:50:01;14.60;;;7.53;;
5616;SDS011;2830;50.656;7.568;2024-03-22T11:52:28;12.07;;;7.67;;
5616;SDS011;2830;50.656;7.568;2024-03-22T11:54:54;18.13;;;9.33;;
5616;SDS011;2830;50.656;7.568;2024-03-22T11:57:21;13.63;;;8.93;;
5616;SDS011;2830;50.656;7.568;2024-03-22T11:59:47;13.57;;;8.00;;
5616;SDS011;2830;50.656;7.568;2024-03-22T12:02:13;11.27;;;7.50;;
5616;SDS011;2830;50.656;7.568;2024-03-22T12:04:42;11.17;;;7.63;;
5616;SDS011;2830;50.656;7.568;2024-03-22T12:07:16;18.33;;;9.53;;
5616;SDS011;2830;50.656;7.568;2024-03-22T12:09:43;15.63;;;9.00;;
5616;SDS011;2830;50.656;7.568;2024-03-22T12:12:10;18.47;;;8.77;;
5616;SDS011;2830;50.656;7.568;2024-03-22T12:14:37;12.23;;;8.53;;
5616;SDS011;2830;50.656;7.568;2024-03-22T12:17:04;13.00;;;8.87;;
5616;SDS011;2830;50.656;7.568;2024-03-22T12:19:30;22.00;;;9.60;;
5616;SDS011;2830;50.656;7.568;2024-03-22T12:21:56;16.57;;;10.60;;
5616;SDS011;2830;50.656;7.568;2024-03-22T12:24:23;16.70;;;8.87;;
5616;SDS011;2830;50.656;7.568;2024-03-22T12:26:49;13.80;;;9.10;;
5616;SDS011;2830;50.656;7.568;2024-03-22T12:29:16;12.83;;;8.67;;
5616;SDS011;2830;50.656;7.568;2024-03-22T12:31:42;15.10;;;8.33;;
5616;SDS011;2830;50.656;7.568;2024-03-22T12:34:08;17.17;;;9.10;;
5616;SDS011;2830;50.656;7.568;2024-03-22T12:36:34;14.60;;;9.20;;
5616;SDS011;2830;50.656;7.568;2024-03-22T12:39:01;14.40;;;8.20;;
5616;SDS011;2830;50.656;7.568;2024-03-22T12:41:27;13.73;;;9.23;;
5616;SDS011;2830;50.656;7.568;2024-03-22T12:43:54;20.13;;;8.63;;
5616;SDS011;2830;50.656;7.568;2024-03-22T12:46:20;15.43;;;8.10;;
5616;SDS011;2830;50.656;7.568;2024-03-22T12:48:46;13.73;;;8.00;;
5616;SDS011;2830;50.656;7.568;2024-03-22T12:51:12;12.50;;;8.80;;
5616;SDS011;2830;50.656;7.568;2024-03-22T12:53:39;12.83;;;8.83;;
5616;SDS011;2830;50.656;7.568;2024-03-22T12:56:05;18.03;;;7.40;;
5616;SDS011;2830;50.656;7.568;2024-03-22T12:58:31;11.63;;;6.83;;
5616;SDS011;2830;50.656;7.568;2024-03-22T13:00:57;14.37;;;7.67;;
5616;SDS011;2830;50.656;7.568;2024-03-22T13:03:25;13.30;;;7.83;;
5616;SDS011;2830;50.656;7.568;2024-03-22T13:05:51;10.70;;;7.00;;
5616;SDS011;2830;50.656;7.568;2024-03-22T13:08:17;18.03;;;6.80;;
5616;SDS011;2830;50.656;7.568;2024-03-22T13:10:44;12.50;;;6.43;;
5616;SDS011;2830;50.656;7.568;2024-03-22T13:13:13;14.23;;;6.03;;
5616;SDS011;2830;50.656;7.568;2024-03-22T13:15:44;11.80;;;5.80;;
5616;SDS011;2830;50.656;7.568;2024-03-22T13:18:12;8.30;;;5.73;;
5616;SDS011;2830;50.656;7.568;2024-03-22T13:20:38;7.00;;;4.43;;
5616;SDS011;2830;50.656;7.568;2024-03-22T13:23:04;7.93;;;5.60;;
5616;SDS011;2830;50.656;7.568;2024-03-22T13:25:30;9.00;;;4.57;;
5616;SDS011;2830;50.656;7.568;2024-03-22T13:27:56;13.63;;;4.33;;
5616;SDS011;2830;50.656;7.568;2024-03-22T13:30:22;8.00;;;4.77;;
5616;SDS011;2830;50.656;7.568;2024-03-22T13:32:48;13.13;;;4.43;;
5616;SDS011;2830;50.656;7.568;2024-03-22T13:35:14;9.40;;;4.50;;
5616;SDS011;2830;50.656;7.568;2024-03-22T13:37:40;10.90;;;4.47;;
5616;SDS011;2830;50.656;7.568;2024-03-22T13:40:06;6.97;;;3.80;;
5616;SDS011;2830;50.656;7.568;2024-03-22T13:42:33;6.50;;;3.97;;
5616;SDS011;2830;50.656;7.568;2024-03-22T13:44:59;8.87;;;4.63;;
5616;SDS011;2830;50.656;7.568;2024-03-22T13:47:26;6.73;;;4.77;;
5616;SDS011;2830;50.656;7.568;2024-03-22T13:49:55;8.70;;;4.30;;
5616;SDS011;2830;50.656;7.568;2024-03-22T13:52:21;7.10;;;4.57;;
5616;SDS011;2830;50.656;7.568;2024-03-22T13:54:47;7.17;;;5.03;;
5616;SDS011;2830;50.656;7.568;2024-03-22T13:57:13;8.00;;;4.10;;
5616;SDS011;2830;50.656;7.568;2024-03-22T13:59:39;9.50;;;4.77;;
5616;SDS011;2830;50.656;7.568;2024-03-22T14:02:05;6.37;;;4.00;;
5616;SDS011;2830;50.656;7.568;2024-03-22T14:04:32;6.63;;;4.87;;
5616;SDS011;2830;50.656;7.568;2024-03-22T14:06:59;7.60;;;4.43;;
5616;SDS011;2830;50.656;7.568;2024-03-22T14:09:33;8.10;;;4.77;;
5616;SDS011;2830;50.656;7.568;2024-03-22T14:11:59;5.10;;;3.70;;
5616;SDS011;2830;50.656;7.568;2024-03-22T14:14:25;6.60;;;3.03;;
5616;SDS011;2830;50.656;7.568;2024-03-22T14:16:52;6.70;;;3.57;;
5616;SDS011;2830;50.656;7.568;2024-03-22T14:19:18;8.83;;;4.50;;
5616;SDS011;2830;50.656;7.568;2024-03-22T14:21:46;6.60;;;4.10;;
5616;SDS011;2830;50.656;7.568;2024-03-22T14:24:13;5.63;;;3.43;;
5616;SDS011;2830;50.656;7.568;2024-03-22T14:26:39;11.57;;;4.00;;
5616;SDS011;2830;50.656;7.568;2024-03-22T14:29:12;7.77;;;3.63;;
5616;SDS011;2830;50.656;7.568;2024-03-22T14:31:38;7.37;;;4.27;;
5616;SDS011;2830;50.656;7.568;2024-03-22T14:34:05;7.03;;;3.70;;
5616;SDS011;2830;50.656;7.568;2024-03-22T14:36:32;5.73;;;3.20;;
5616;SDS011;2830;50.656;7.568;2024-03-22T14:38:58;7.30;;;3.30;;
5616;SDS011;2830;50.656;7.568;2024-03-22T14:41:24;5.20;;;3.30;;
5616;SDS011;2830;50.656;7.568;2024-03-22T14:43:50;6.50;;;3.23;;
5616;SDS011;2830;50.656;7.568;2024-03-22T14:46:16;4.03;;;2.33;;
5616;SDS011;2830;50.656;7.568;2024-03-22T14:48:45;5.10;;;2.30;;
5616;SDS011;2830;50.656;7.568;2024-03-22T14:51:11;4.50;;;2.33;;
5616;SDS011;2830;50.656;7.568;2024-03-22T14:53:37;6.10;;;2.00;;